Time;durP1;ratioP1;P1;durP2;ratioP2;P2;SDS_P1;SDS_P2;PMS_P1;PMS_P2;Temp;Humidity;BMP_temperature;BMP_pressure;BME280_temperature;BME280_humidity;BME280_pressure;Samples;Min_cycle;Max_cycle;Signal;HPM_P1;HPM_P2
2023/01/30 00:02:08;;;;;;;25.55;11.07;;;6.50;99.90;;;;;;5081477;27;20450;-86
2023/01/30 00:04:33;;;;;;;20.17;10.63;;;6.50;99.90;;;;;;5102268;28;20039;-87
2023/01/30 00:06:59;;;;;;;18.38;10.23;;;6.50;99.90;;;;;;5094431;28;20036;-86
2023/01/30 00:09:24;;;;;;;24.55;10.85;;;6.50;99.90;;;;;;5077702;27;20047;-86
2023/01/30 00:11:50;;;;;;;19.23;10.45;;;6.50;99.90;;;;;;5106452;27;20039;-86
2023/01/30 00:14:15;;;;;;;19.95;10.35;;;6.50;99.90;;;;;;5097952;27;20090;-86
2023/01/30 00:16:41;;;;;;;24.13;11.38;;;6.50;99.90;;;;;;5090250;27;20118;-87
2023/01/30 00:19:07;;;;;;;18.70;10.18;;;6.50;99.90;;;;;;5104155;28;20466;-86
2023/01/30 00:21:32;;;;;;;19.52;10.20;;;6.40;99.90;;;;;;5089596;27;20037;-86
2023/01/30 00:23:59;;;;;;;18.58;10.15;;;6.50;99.90;;;;;;5102803;28;20546;-87
2023/01/30 00:26:25;;;;;;;16.65;9.65;;;6.50;99.90;;;;;;5088189;27;20493;-86
2023/01/30 00:28:50;;;;;;;17.63;9.95;;;6.50;99.90;;;;;;5081154;28;20179;-87
2023/01/30 00:31:16;;;;;;;20.65;9.95;;;6.50;99.90;;;;;;5078401;27;20039;-85
2023/01/30 00:33:41;;;;;;;20.45;9.60;;;6.50;99.90;;;;;;5076184;28;20510;-87
2023/01/30 00:36:09;;;;;;;16.95;9.25;;;6.50;99.90;;;;;;5079787;28;20040;-87
2023/01/30 00:38:34;;;;;;;16.10;8.68;;;6.50;99.90;;;;;;5092324;27;20041;-86
2023/01/30 00:41:00;;;;;;;18.92;8.70;;;6.50;99.90;;;;;;5093828;28;20492;-87
2023/01/30 00:49:08;;;;;;;18.17;7.72;;;6.50;99.90;;;;;;5096282;28;20040;-85
2023/01/30 00:51:34;;;;;;;14.57;7.97;;;6.50;99.90;;;;;;5093135;28;20394;-86
2023/01/30 00:53:59;;;;;;;15.15;7.72;;;6.40;99.90;;;;;;5075111;28;20046;-86
2023/01/30 00:56:25;;;;;;;15.45;7.50;;;6.50;99.90;;;;;;5100681;28;20043;-85
2023/01/30 00:58:50;;;;;;;17.38;7.68;;;6.40;99.90;;;;;;5108747;28;20039;-86
2023/01/30 01:01:16;;;;;;;20.13;8.23;;;6.40;99.90;;;;;;5098944;28;20046;-85
2023/01/30 01:03:42;;;;;;;15.93;7.38;;;6.40;99.90;;;;;;5076933;28;20031;-85
2023/01/30 01:06:07;;;;;;;15.38;7.53;;;6.40;99.90;;;;;;5100746;28;20087;-86
2023/01/30 01:08:33;;;;;;;16.48;7.82;;;6.40;99.90;;;;;;5105792;28;20031;-86
2023/01/30 01:10:58;;;;;;;14.18;6.32;;;6.40;99.90;;;;;;5084509;28;20036;-85
2023/01/30 01:13:24;;;;;;;14.00;6.90;;;6.40;99.90;;;;;;5092709;28;20048;-85
2023/01/30 01:15:49;;;;;;;15.88;6.32;;;6.40;99.90;;;;;;5080862;28;20039;-85
2023/01/30 01:18:15;;;;;;;17.13;6.40;;;6.40;99.90;;;;;;5106468;28;20078;-85
2023/01/30 01:20:40;;;;;;;13.05;6.95;;;6.40;99.90;;;;;;5093541;28;20077;-86
2023/01/30 01:23:08;;;;;;;13.10;5.88;;;6.30;99.90;;;;;;5076625;28;20046;-86
2023/01/30 01:25:34;;;;;;;13.30;6.07;;;6.30;99.90;;;;;;5077166;28;20032;-86
2023/01/30 01:27:59;;;;;;;13.02;5.95;;;6.30;99.90;;;;;;5093356;28;20512;-86
2023/01/30 01:30:25;;;;;;;12.73;6.07;;;6.30;99.90;;;;;;5076681;28;20046;-86
2023/01/30 01:32:51;;;;;;;12.75;5.43;;;6.30;99.90;;;;;;5093628;28;20036;-86
2023/01/30 01:35:18;;;;;;;11.45;5.40;;;6.30;99.90;;;;;;5103133;27;20099;-85
2023/01/30 01:37:43;;;;;;;12.05;4.93;;;6.30;99.90;;;;;;5098892;28;20053;-84
2023/01/30 01:43:01;;;;;;;11.68;5.53;;;6.30;99.90;;;;;;5096326;28;20083;-85
2023/01/30 01:45:28;;;;;;;12.75;5.68;;;6.40;99.90;;;;;;5086784;27;20031;-85
2023/01/30 01:48:34;;;;;;;11.57;5.53;;;6.30;99.90;;;;;;5080151;28;20067;-84
2023/01/30 01:51:04;;;;;;;12.93;5.85;;;6.40;99.90;;;;;;5092312;28;20453;-85
2023/01/30 01:53:35;;;;;;;13.65;5.60;;;6.80;99.90;;;;;;5086874;28;20039;-84
2023/01/30 01:56:02;;;;;;;12.73;5.70;;;6.40;99.90;;;;;;5105185;28;20400;-85
2023/01/30 01:58:33;;;;;;;14.63;5.78;;;6.40;99.90;;;;;;5098526;28;20430;-85
2023/01/30 02:00:59;;;;;;;13.15;6.32;;;6.40;99.90;;;;;;5096456;28;20489;-86
2023/01/30 02:03:29;;;;;;;16.20;6.25;;;6.40;99.90;;;;;;5105914;27;20077;-87
2023/01/30 02:05:58;;;;;;;13.77;6.53;;;6.40;99.90;;;;;;5104777;28;20035;-84
2023/01/30 02:08:31;;;;;;;14.65;6.97;;;6.40;99.90;;;;;;5116000;27;20035;-85
2023/01/30 02:11:16;;;;;;;16.35;6.97;;;6.50;99.90;;;;;;5081490;28;20039;-86
2023/01/30 02:13:43;;;;;;;24.63;8.18;;;6.50;99.90;;;;;;5096973;27;20058;-84
2023/01/30 02:16:09;;;;;;;18.98;6.95;;;6.50;99.90;;;;;;5087135;27;20043;-85
2023/01/30 02:18:37;;;;;;;20.20;8.13;;;6.50;99.90;;;;;;5105303;28;20043;-85
2023/01/30 02:21:18;;;;;;;18.30;6.90;;;6.50;99.90;;;;;;5110565;27;20035;-85
2023/01/30 02:24:11;;;;;;;23.30;7.28;;;6.50;99.90;;;;;;5082873;27;20047;-85
2023/01/30 02:27:00;;;;;;;20.20;7.03;;;6.50;99.90;;;;;;5085193;27;20043;-85
2023/01/30 02:29:38;;;;;;;18.88;7.20;;;6.60;99.90;;;;;;5081512;28;20456;-86
2023/01/30 02:32:11;;;;;;;25.70;7.55;;;6.70;99.90;;;;;;5103981;27;20039;-85
2023/01/30 02:35:01;;;;;;;23.33;7.78;;;6.70;99.90;;;;;;5081986;28;20040;-85
2023/01/30 02:37:35;;;;;;;21.38;7.38;;;6.60;99.90;;;;;;5095868;28;20042;-84
2023/01/30 02:40:20;;;;;;;19.10;7.22;;;6.60;99.90;;;;;;5098984;28;20108;-83
2023/01/30 02:43:15;;;;;;;25.00;6.90;;;6.70;99.90;;;;;;5094394;28;20044;-83
2023/01/30 02:45:53;;;;;;;18.85;7.53;;;6.60;99.90;;;;;;5097108;27;20538;-84
2023/01/30 02:48:28;;;;;;;21.38;7.18;;;6.60;99.90;;;;;;5108100;27;20049;-83
2023/01/30 02:51:02;;;;;;;21.10;7.45;;;6.60;99.90;;;;;;5078760;28;20035;-84
2023/01/30 02:53:34;;;;;;;21.10;6.55;;;6.60;99.90;;;;;;5080985;27;20043;-83
2023/01/30 02:56:00;;;;;;;21.23;7.03;;;6.70;99.90;;;;;;5102012;28;20035;-84
2023/01/30 02:58:30;;;;;;;19.58;6.88;;;6.60;99.90;;;;;;5095475;28;20039;-84
2023/01/30 03:01:19;;;;;;;20.52;5.63;;;6.70;99.90;;;;;;5095497;28;20044;-84
2023/01/30 03:03:58;;;;;;;22.02;5.80;;;6.70;99.90;;;;;;5083495;27;20107;-83
2023/01/30 03:06:47;;;;;;;29.67;5.88;;;6.80;99.90;;;;;;5107508;27;20438;-85
2023/01/30 03:09:35;;;;;;;22.98;6.65;;;6.90;99.90;;;;;;5101933;28;20095;-84
2023/01/30 03:12:16;;;;;;;23.80;5.28;;;6.90;99.90;;;;;;5095348;28;20088;-85
2023/01/30 03:14:46;;;;;;;19.23;4.88;;;6.90;99.90;;;;;;5101675;28;20047;-84
2023/01/30 03:17:13;;;;;;;20.80;4.22;;;6.90;99.90;;;;;;5086645;27;20040;-84
2023/01/30 03:19:39;;;;;;;22.70;4.75;;;7.00;99.90;;;;;;5102145;28;20050;-84
2023/01/30 03:22:05;;;;;;;20.10;5.30;;;7.00;99.90;;;;;;5095015;28;20043;-84
2023/01/30 03:24:30;;;;;;;13.70;4.03;;;7.00;99.90;;;;;;5085509;28;20413;-84
2023/01/30 03:27:02;;;;;;;20.05;4.22;;;7.00;99.90;;;;;;5079786;28;20039;-83
2023/01/30 03:29:28;;;;;;;18.58;4.78;;;7.00;99.90;;;;;;5094708;28;20031;-83
2023/01/30 03:31:53;;;;;;;18.75;4.50;;;6.90;99.90;;;;;;5094813;28;20057;-84
2023/01/30 03:34:19;;;;;;;12.48;3.90;;;6.90;99.90;;;;;;5100233;27;20050;-83
2023/01/30 03:36:46;;;;;;;15.38;3.42;;;6.90;99.90;;;;;;5101289;28;20112;-84
2023/01/30 03:39:11;;;;;;;20.75;3.95;;;6.80;99.90;;;;;;5085482;27;20125;-83
2023/01/30 03:41:37;;;;;;;16.95;4.00;;;6.80;99.90;;;;;;5107616;27;20122;-83
2023/01/30 03:44:03;;;;;;;15.80;4.00;;;6.70;99.90;;;;;;5109094;27;20133;-84
2023/01/30 03:46:28;;;;;;;18.88;4.07;;;6.70;99.90;;;;;;5106328;27;20058;-83
2023/01/30 03:48:54;;;;;;;18.48;4.18;;;6.60;99.90;;;;;;5114112;27;20616;-84
2023/01/30 03:51:19;;;;;;;18.33;3.60;;;6.60;99.90;;;;;;5094639;28;20516;-83
2023/01/30 03:53:45;;;;;;;13.75;3.83;;;6.50;99.90;;;;;;5099573;27;20109;-82
2023/01/30 03:56:10;;;;;;;15.20;3.55;;;6.50;99.90;;;;;;5106521;27;20119;-82
2023/01/30 03:58:36;;;;;;;19.02;3.88;;;6.50;99.90;;;;;;5101679;28;20111;-84
2023/01/30 04:01:02;;;;;;;16.25;3.63;;;6.50;99.90;;;;;;5091151;28;20024;-83
2023/01/30 04:03:27;;;;;;;21.27;3.92;;;6.40;99.90;;;;;;5085392;28;20043;-83
2023/01/30 04:05:53;;;;;;;24.65;4.22;;;6.40;99.90;;;;;;5077450;28;20401;-83
2023/01/30 04:08:18;;;;;;;17.38;4.28;;;6.40;99.90;;;;;;5093911;28;20043;-83
2023/01/30 04:10:44;;;;;;;14.65;4.03;;;6.30;99.90;;;;;;5077371;28;20035;-83
2023/01/30 04:13:09;;;;;;;19.80;3.83;;;6.20;99.90;;;;;;5094247;28;20043;-84
2023/01/30 04:15:35;;;;;;;16.10;4.20;;;6.30;99.90;;;;;;5102380;27;20035;-83
2023/01/30 04:18:00;;;;;;;24.80;4.45;;;6.30;99.90;;;;;;5097634;28;20101;-84
2023/01/30 04:20:26;;;;;;;21.10;3.85;;;6.30;99.90;;;;;;5077466;28;20172;-83
2023/01/30 04:22:54;;;;;;;19.20;3.97;;;6.30;99.90;;;;;;5099646;28;20122;-83
2023/01/30 04:25:19;;;;;;;18.75;3.97;;;6.30;99.90;;;;;;5106548;27;20118;-83
2023/01/30 04:27:45;;;;;;;18.27;4.40;;;6.20;99.90;;;;;;5107860;27;20172;-83
2023/01/30 04:30:11;;;;;;;23.60;4.40;;;6.20;99.90;;;;;;5096692;28;20104;-84
2023/01/30 04:32:36;;;;;;;22.65;4.63;;;6.20;99.90;;;;;;5093769;28;20537;-83
2023/01/30 04:35:02;;;;;;;26.17;4.47;;;6.20;99.90;;;;;;5100703;27;20553;-83
2023/01/30 04:37:27;;;;;;;26.15;4.90;;;6.10;99.90;;;;;;5078352;28;20089;-83
2023/01/30 04:39:53;;;;;;;23.63;4.45;;;6.20;99.90;;;;;;5092891;28;20047;-83
2023/01/30 04:42:18;;;;;;;21.77;4.50;;;6.10;99.90;;;;;;5085597;28;20058;-83
2023/01/30 04:44:44;;;;;;;24.92;4.15;;;6.10;99.90;;;;;;5062902;28;20448;-84
2023/01/30 04:47:09;;;;;;;30.38;4.65;;;6.10;99.90;;;;;;5093812;28;20501;-83
2023/01/30 04:49:35;;;;;;;21.88;3.35;;;6.10;99.90;;;;;;5094314;28;20092;-83
2023/01/30 04:52:00;;;;;;;17.05;3.42;;;6.20;99.90;;;;;;5105472;28;20039;-83
2023/01/30 04:54:26;;;;;;;22.02;3.35;;;6.20;99.90;;;;;;5104865;28;20089;-83
2023/01/30 04:56:51;;;;;;;10.98;2.60;;;6.20;99.90;;;;;;5093524;28;20071;-83
2023/01/30 04:59:17;;;;;;;12.88;2.63;;;6.20;99.90;;;;;;5076610;28;20051;-82
2023/01/30 05:01:42;;;;;;;22.83;3.63;;;6.20;99.90;;;;;;5093617;28;20039;-84
2023/01/30 05:04:08;;;;;;;22.10;3.28;;;6.10;99.90;;;;;;5072785;28;20040;-84
2023/01/30 05:06:35;;;;;;;22.85;3.55;;;6.10;99.90;;;;;;5084405;28;20040;-84
2023/01/30 05:09:01;;;;;;;16.10;2.85;;;6.00;99.90;;;;;;5100622;27;20031;-84
2023/01/30 05:11:28;;;;;;;25.25;3.33;;;5.90;99.90;;;;;;5077664;28;20028;-84
2023/01/30 05:13:54;;;;;;;20.13;3.35;;;5.90;99.90;;;;;;5060832;28;20032;-84
2023/01/30 05:16:21;;;;;;;20.67;3.65;;;5.90;99.90;;;;;;5098079;28;20034;-85
2023/01/30 05:18:48;;;;;;;22.70;4.50;;;5.80;99.90;;;;;;5097193;28;20039;-83
2023/01/30 05:21:19;;;;;;;20.13;3.40;;;6.00;99.90;;;;;;5097952;27;20045;-83
2023/01/30 05:23:45;;;;;;;21.08;3.10;;;5.90;99.90;;;;;;5108922;27;20050;-84
2023/01/30 05:26:12;;;;;;;18.63;2.70;;;5.90;99.90;;;;;;5100854;27;20035;-85
2023/01/30 05:28:38;;;;;;;18.05;3.53;;;5.90;99.90;;;;;;5097488;28;20793;-85
2023/01/30 05:31:06;;;;;;;18.60;4.45;;;5.90;99.90;;;;;;5079516;28;20078;-85
2023/01/30 05:33:32;;;;;;;21.83;3.67;;;5.80;99.90;;;;;;5079947;28;20408;-85
2023/01/30 05:35:58;;;;;;;17.55;3.38;;;5.70;99.90;;;;;;5080536;28;20035;-84
2023/01/30 05:38:24;;;;;;;15.32;2.63;;;5.70;99.90;;;;;;5096799;28;20044;-84
2023/01/30 05:41:03;;;;;;;17.58;3.72;;;5.70;99.90;;;;;;5090674;28;20116;-83
2023/01/30 05:43:29;;;;;;;20.45;3.42;;;5.70;99.90;;;;;;5096707;28;20032;-84
2023/01/30 05:45:56;;;;;;;12.73;2.53;;;5.70;99.90;;;;;;5098255;28;20122;-84
2023/01/30 05:48:23;;;;;;;23.58;3.22;;;5.70;99.90;;;;;;5104876;28;20050;-85
2023/01/30 05:50:53;;;;;;;19.58;3.83;;;5.70;99.90;;;;;;5096960;28;20046;-83
2023/01/30 05:53:19;;;;;;;18.88;3.33;;;5.70;99.90;;;;;;5096979;28;20434;-84
2023/01/30 05:55:45;;;;;;;24.33;3.30;;;5.80;99.90;;;;;;5098012;27;20423;-84
2023/01/30 05:58:11;;;;;;;19.45;3.22;;;5.70;99.90;;;;;;5092655;28;20043;-85
2023/01/30 06:00:37;;;;;;;22.77;3.45;;;5.70;99.90;;;;;;5094227;28;20124;-85
2023/01/30 06:03:04;;;;;;;23.85;3.33;;;5.70;99.90;;;;;;5093618;28;20063;-85
2023/01/30 06:05:29;;;;;;;19.10;3.30;;;5.60;99.90;;;;;;5091337;27;20388;-84
2023/01/30 06:07:55;;;;;;;21.60;3.22;;;5.60;99.90;;;;;;5101048;28;20050;-84
2023/01/30 06:10:20;;;;;;;22.60;3.05;;;5.60;99.90;;;;;;5096577;28;20043;-84
2023/01/30 06:12:46;;;;;;;16.33;3.50;;;5.70;99.90;;;;;;5079210;28;20039;-82
2023/01/30 06:15:12;;;;;;;16.15;3.47;;;5.70;99.90;;;;;;5103813;27;20078;-84
2023/01/30 06:17:41;;;;;;;20.52;4.55;;;5.80;99.90;;;;;;5108925;27;20604;-83
2023/01/30 06:20:08;;;;;;;22.92;3.65;;;6.00;99.90;;;;;;5099209;27;20559;-83
2023/01/30 06:22:33;;;;;;;28.33;3.78;;;6.00;99.90;;;;;;5100351;28;20497;-84
2023/01/30 06:24:59;;;;;;;20.40;3.55;;;6.00;99.90;;;;;;5095148;28;20085;-84
2023/01/30 06:27:24;;;;;;;23.60;4.10;;;6.10;99.90;;;;;;5104937;27;20035;-84
2023/01/30 06:29:50;;;;;;;25.52;4.00;;;6.10;99.90;;;;;;5096227;28;20036;-84
2023/01/30 06:32:15;;;;;;;19.60;3.85;;;6.10;99.90;;;;;;5096138;28;20120;-85
2023/01/30 06:34:41;;;;;;;23.13;3.70;;;6.00;99.90;;;;;;5092261;28;20040;-84
2023/01/30 06:37:06;;;;;;;20.40;3.33;;;6.10;99.90;;;;;;5096651;28;20043;-83
2023/01/30 06:39:32;;;;;;;25.33;3.85;;;6.10;99.90;;;;;;5090817;28;20489;-84
2023/01/30 06:41:57;;;;;;;21.42;3.97;;;6.10;99.90;;;;;;5100625;28;20413;-84
2023/01/30 06:44:23;;;;;;;21.98;3.40;;;6.10;99.90;;;;;;5085371;28;20117;-84
2023/01/30 06:46:48;;;;;;;19.40;3.50;;;6.10;99.90;;;;;;5094053;28;20038;-84
2023/01/30 06:49:14;;;;;;;28.50;3.80;;;6.10;99.90;;;;;;5078528;28;20040;-84
2023/01/30 06:51:39;;;;;;;21.15;4.88;;;6.10;99.90;;;;;;5078916;28;20039;-83
2023/01/30 06:54:05;;;;;;;25.17;3.55;;;6.10;99.90;;;;;;5095509;28;20550;-85
2023/01/30 06:56:30;;;;;;;25.50;4.88;;;6.20;99.90;;;;;;5095665;28;20039;-84
2023/01/30 06:58:56;;;;;;;18.80;5.03;;;6.20;99.90;;;;;;5078639;28;20039;-85
2023/01/30 07:01:21;;;;;;;29.20;4.70;;;6.10;99.90;;;;;;5080286;27;20046;-84
2023/01/30 07:03:47;;;;;;;23.77;3.45;;;6.20;99.90;;;;;;5090283;27;20030;-85
2023/01/30 07:06:12;;;;;;;19.05;3.58;;;6.20;99.90;;;;;;5116011;27;20031;-84
2023/01/30 07:08:39;;;;;;;21.20;3.08;;;6.20;99.90;;;;;;5108629;28;20564;-86
2023/01/30 07:11:05;;;;;;;21.25;3.17;;;6.20;99.90;;;;;;5095419;28;20047;-84
2023/01/30 07:13:30;;;;;;;26.50;4.72;;;6.30;99.90;;;;;;5102067;28;20114;-82
2023/01/30 07:15:56;;;;;;;23.33;4.13;;;6.30;99.90;;;;;;5111035;27;20092;-84
2023/01/30 07:18:21;;;;;;;22.05;4.30;;;6.30;99.90;;;;;;5094345;28;20035;-83
2023/01/30 07:20:48;;;;;;;26.90;4.25;;;6.20;99.90;;;;;;5091162;28;20577;-85
2023/01/30 07:23:13;;;;;;;21.20;3.75;;;6.20;99.90;;;;;;5090458;27;20031;-85
2023/01/30 07:25:39;;;;;;;33.60;4.18;;;6.20;99.90;;;;;;5101020;28;20043;-84
2023/01/30 07:28:04;;;;;;;22.73;3.83;;;6.30;99.90;;;;;;5110741;27;20035;-84
2023/01/30 07:30:32;;;;;;;28.90;3.70;;;6.30;99.90;;;;;;5096287;28;20035;-85
2023/01/30 07:32:59;;;;;;;28.70;4.35;;;6.30;99.90;;;;;;5079537;28;20028;-86
2023/01/30 07:35:27;;;;;;;21.10;4.43;;;6.30;99.90;;;;;;5093068;28;20080;-85
2023/01/30 07:37:52;;;;;;;25.50;3.85;;;6.30;99.90;;;;;;5093949;28;20046;-84
2023/01/30 07:40:20;;;;;;;21.23;4.07;;;6.30;99.90;;;;;;5104689;27;20493;-86
2023/01/30 07:43:15;;;;;;;20.00;3.13;;;6.40;99.90;;;;;;5097916;27;20043;-85
2023/01/30 07:45:43;;;;;;;21.67;3.80;;;6.40;99.90;;;;;;5057263;28;20513;-85
2023/01/30 07:48:15;;;;;;;17.73;4.22;;;6.40;99.90;;;;;;5086255;28;20047;-85
2023/01/30 07:50:42;;;;;;;24.25;4.00;;;6.40;99.90;;;;;;5092323;28;20040;-84
2023/01/30 07:53:10;;;;;;;28.55;4.32;;;6.40;99.90;;;;;;5093279;28;20412;-85
2023/01/30 07:55:36;;;;;;;23.63;4.07;;;6.30;99.90;;;;;;5093936;28;20122;-86
2023/01/30 07:58:02;;;;;;;21.08;4.10;;;6.30;99.90;;;;;;5075493;28;20119;-84
2023/01/30 08:00:28;;;;;;;21.80;3.88;;;6.30;99.90;;;;;;5074987;28;20134;-84
2023/01/30 08:02:54;;;;;;;26.52;4.20;;;6.40;99.90;;;;;;5093483;28;20502;-84
2023/01/30 08:05:19;;;;;;;19.45;3.08;;;6.40;99.90;;;;;;5093973;28;20075;-84
2023/01/30 08:07:46;;;;;;;21.50;4.25;;;6.40;99.90;;;;;;5093987;28;20217;-85
2023/01/30 08:10:12;;;;;;;20.60;3.75;;;6.40;99.90;;;;;;5077200;28;20031;-85
2023/01/30 08:12:39;;;;;;;21.27;3.20;;;6.40;99.90;;;;;;5077540;28;20039;-86
2023/01/30 08:15:06;;;;;;;15.50;3.42;;;6.40;99.90;;;;;;5091486;28;20154;-85
2023/01/30 08:17:31;;;;;;;22.45;3.67;;;6.40;99.90;;;;;;5081481;28;20079;-86
2023/01/30 08:19:57;;;;;;;21.50;3.97;;;6.40;99.90;;;;;;5100517;28;20046;-86
2023/01/30 08:22:22;;;;;;;21.02;3.58;;;6.50;99.90;;;;;;5090104;28;20040;-86
2023/01/30 08:24:48;;;;;;;20.88;4.07;;;6.50;99.90;;;;;;5088595;28;20044;-86
2023/01/30 08:27:14;;;;;;;19.25;3.50;;;6.50;99.90;;;;;;5072066;28;20050;-84
2023/01/30 08:29:39;;;;;;;22.40;4.07;;;6.50;99.90;;;;;;5079507;28;20042;-86
2023/01/30 08:32:05;;;;;;;22.13;4.00;;;6.50;99.90;;;;;;5085981;28;20079;-84
2023/01/30 08:34:30;;;;;;;18.13;3.50;;;6.50;99.90;;;;;;5086211;28;20523;-86
2023/01/30 08:36:56;;;;;;;18.98;3.63;;;6.60;99.90;;;;;;5086328;28;20116;-85
2023/01/30 08:39:21;;;;;;;22.25;4.40;;;6.60;99.90;;;;;;5085969;28;20065;-86
2023/01/30 08:41:47;;;;;;;21.92;3.10;;;6.60;99.90;;;;;;5063238;28;20447;-86
2023/01/30 08:44:13;;;;;;;17.40;3.63;;;6.60;99.90;;;;;;5082025;28;20081;-85
2023/01/30 08:46:39;;;;;;;20.30;4.20;;;6.60;99.90;;;;;;5103695;27;20122;-86
2023/01/30 08:49:05;;;;;;;26.20;4.05;;;6.70;99.90;;;;;;5089860;28;20051;-86
2023/01/30 08:51:31;;;;;;;24.98;3.45;;;6.60;99.90;;;;;;5092513;28;20051;-85
2023/01/30 08:53:57;;;;;;;18.77;3.25;;;6.60;99.90;;;;;;5101655;28;20032;-86
2023/01/30 08:56:22;;;;;;;22.20;4.28;;;6.50;99.90;;;;;;5090085;28;20038;-86
2023/01/30 08:58:48;;;;;;;24.33;3.92;;;6.50;99.90;;;;;;5102695;28;20034;-88
2023/01/30 09:01:14;;;;;;;25.00;3.70;;;6.60;99.90;;;;;;5100133;28;20089;-86
2023/01/30 09:03:40;;;;;;;20.85;4.13;;;6.60;99.90;;;;;;5101434;28;20027;-87
2023/01/30 09:06:06;;;;;;;26.67;4.18;;;6.60;99.90;;;;;;5095811;28;20080;-88
2023/01/30 09:08:31;;;;;;;26.08;4.30;;;6.70;99.90;;;;;;5093030;28;20027;-86
2023/01/30 09:11:04;;;;;;;17.92;3.88;;;6.80;99.90;;;;;;5069063;28;20385;-86
2023/01/30 09:13:30;;;;;;;30.30;4.38;;;6.90;99.90;;;;;;5088209;28;20456;-87
2023/01/30 09:15:56;;;;;;;31.10;5.25;;;6.90;99.90;;;;;;5091057;28;20031;-86
2023/01/30 09:18:22;;;;;;;24.48;4.10;;;6.90;99.90;;;;;;5108575;28;20035;-86
2023/01/30 09:20:48;;;;;;;22.42;4.47;;;6.90;99.90;;;;;;5093247;28;20040;-84
2023/01/30 09:23:13;;;;;;;18.08;3.97;;;6.90;99.90;;;;;;5074755;28;20040;-85
2023/01/30 09:25:39;;;;;;;23.02;3.92;;;6.90;99.90;;;;;;5075653;28;20035;-84
2023/01/30 09:28:05;;;;;;;22.75;3.75;;;7.00;99.90;;;;;;5088866;28;20412;-82
2023/01/30 09:30:30;;;;;;;23.70;3.92;;;7.00;99.90;;;;;;5081386;28;20531;-83
2023/01/30 09:32:56;;;;;;;20.13;3.47;;;7.00;99.90;;;;;;5082325;28;20659;-83
2023/01/30 09:35:22;;;;;;;19.38;3.78;;;7.00;99.90;;;;;;5092492;28;20759;-83
2023/01/30 09:37:52;;;;;;;21.30;3.80;;;7.00;99.90;;;;;;5089643;28;20066;-84
2023/01/30 09:40:28;;;;;;;24.35;4.28;;;6.90;99.90;;;;;;5088380;28;20044;-84
2023/01/30 09:43:15;;;;;;;25.38;4.43;;;6.80;99.90;;;;;;5075562;28;20039;-82
2023/01/30 09:45:49;;;;;;;27.30;4.25;;;6.60;99.90;;;;;;5105532;28;20032;-83
2023/01/30 09:48:21;;;;;;;24.50;3.70;;;6.50;99.90;;;;;;5092730;28;20040;-82
2023/01/30 09:50:59;;;;;;;20.42;3.80;;;6.30;99.90;;;;;;5091698;28;20477;-81
2023/01/30 09:53:50;;;;;;;26.65;4.55;;;6.30;99.90;;;;;;5091404;28;20078;-82
2023/01/30 09:56:16;;;;;;;23.40;4.47;;;6.40;99.90;;;;;;5096366;27;20080;-82
2023/01/30 09:58:55;;;;;;;28.00;4.40;;;6.50;99.90;;;;;;5096600;28;20035;-83
2023/01/30 10:01:37;;;;;;;21.38;3.70;;;6.70;99.90;;;;;;5100345;27;20489;-83
2023/01/30 10:04:17;;;;;;;23.02;4.03;;;6.80;99.90;;;;;;5077689;28;20484;-83
2023/01/30 10:07:06;;;;;;;21.55;4.55;;;6.80;99.90;;;;;;5094745;27;20039;-84
2023/01/30 10:09:37;;;;;;;22.60;4.00;;;6.90;99.90;;;;;;5100370;28;20071;-84
2023/01/30 10:12:23;;;;;;;23.83;3.83;;;7.00;99.90;;;;;;5079046;28;20035;-84
2023/01/30 10:15:21;;;;;;;24.50;4.03;;;7.10;99.90;;;;;;5079902;28;20095;-85
2023/01/30 10:17:59;;;;;;;27.15;4.47;;;7.10;99.90;;;;;;5034937;28;20125;-83
2023/01/30 10:20:30;;;;;;;21.77;3.58;;;7.10;99.90;;;;;;5089575;28;20087;-84
2023/01/30 10:23:14;;;;;;;22.00;4.70;;;7.20;99.90;;;;;;5102305;28;20045;-83
2023/01/30 10:25:47;;;;;;;21.30;3.88;;;7.30;99.90;;;;;;5092257;28;20106;-84
2023/01/30 10:28:26;;;;;;;23.70;4.05;;;7.10;99.90;;;;;;5079145;27;20039;-83
2023/01/30 10:31:08;;;;;;;24.92;3.72;;;6.60;99.90;;;;;;5085234;28;20036;-82
2023/01/30 10:34:06;;;;;;;7.78;2.08;;;6.30;99.90;;;;;;5100918;28;20042;-83
2023/01/30 10:36:39;;;;;;;5.70;0.90;;;5.90;99.90;;;;;;5087908;27;20027;-83
2023/01/30 10:39:40;;;;;;;3.28;0.95;;;5.30;99.90;;;;;;5091397;28;20079;-83
2023/01/30 10:42:18;;;;;;;7.18;1.25;;;4.90;99.90;;;;;;5106695;27;20393;-82
2023/01/30 10:44:45;;;;;;;8.23;1.67;;;4.80;99.90;;;;;;5092344;28;20120;-85
2023/01/30 10:47:18;;;;;;;6.10;1.20;;;4.80;99.90;;;;;;5103376;27;20028;-84
2023/01/30 10:49:50;;;;;;;3.83;0.90;;;4.70;99.90;;;;;;5093575;28;20511;-83
2023/01/30 10:52:29;;;;;;;11.90;1.85;;;4.90;99.90;;;;;;5092538;27;20070;-84
2023/01/30 10:55:13;;;;;;;11.40;2.30;;;5.10;99.90;;;;;;5088278;28;20390;-85
2023/01/30 10:58:22;;;;;;;10.82;1.88;;;5.40;99.90;;;;;;5092182;28;20055;-84
2023/01/30 11:01:00;;;;;;;12.35;2.50;;;5.60;99.90;;;;;;5093081;28;20111;-85
2023/01/30 11:03:46;;;;;;;17.52;2.22;;;5.70;99.90;;;;;;5102913;28;20052;-84
2023/01/30 11:06:25;;;;;;;15.65;2.53;;;5.90;99.90;;;;;;5094101;27;20036;-85
2023/01/30 11:08:55;;;;;;;15.82;2.65;;;6.10;99.90;;;;;;5104055;28;20039;-85
2023/01/30 11:11:23;;;;;;;17.08;2.92;;;6.30;99.90;;;;;;5084417;28;20057;-85
2023/01/30 11:13:49;;;;;;;15.52;2.90;;;6.50;99.90;;;;;;5083744;28;20500;-84
2023/01/30 11:16:15;;;;;;;23.60;3.53;;;6.60;99.90;;;;;;5095284;28;20047;-85
2023/01/30 11:18:49;;;;;;;16.17;2.50;;;6.80;99.90;;;;;;5094995;28;20081;-83
2023/01/30 11:21:27;;;;;;;12.52;3.08;;;6.90;99.90;;;;;;5058619;28;20409;-85
2023/01/30 11:23:53;;;;;;;15.40;2.35;;;6.90;99.90;;;;;;5087277;28;20401;-82
2023/01/30 11:26:24;;;;;;;12.43;2.30;;;7.10;99.90;;;;;;5078357;28;20054;-83
2023/01/30 11:28:49;;;;;;;14.68;2.42;;;7.10;99.90;;;;;;5095040;28;20035;-84
2023/01/30 11:31:18;;;;;;;12.68;2.50;;;7.20;99.90;;;;;;5094850;28;20322;-83
2023/01/30 11:33:44;;;;;;;13.70;2.45;;;7.10;99.90;;;;;;5077774;28;20116;-86
2023/01/30 11:36:26;;;;;;;11.02;2.85;;;7.00;99.90;;;;;;5093109;28;20351;-85
2023/01/30 11:39:22;;;;;;;12.05;2.70;;;7.00;99.90;;;;;;5089708;28;20040;-85
2023/01/30 11:41:57;;;;;;;16.65;2.78;;;7.00;99.90;;;;;;5076016;28;20048;-86
2023/01/30 11:44:35;;;;;;;9.70;1.83;;;7.20;99.90;;;;;;5096013;27;20043;-83
2023/01/30 11:47:03;;;;;;;14.15;2.33;;;7.20;99.90;;;;;;5100631;28;20035;-82
2023/01/30 11:49:35;;;;;;;12.02;2.25;;;7.20;99.90;;;;;;5100360;27;20109;-83
2023/01/30 11:52:01;;;;;;;15.13;2.15;;;7.30;99.90;;;;;;5092452;28;20430;-84
2023/01/30 11:54:32;;;;;;;12.77;2.38;;;7.30;99.90;;;;;;5079974;27;20123;-84
2023/01/30 11:57:00;;;;;;;13.10;2.42;;;7.30;99.90;;;;;;5094484;28;20043;-83
2023/01/30 11:59:42;;;;;;;16.13;2.25;;;7.20;99.90;;;;;;5093817;28;20032;-85
2023/01/30 12:02:23;;;;;;;9.45;1.90;;;7.20;99.90;;;;;;5094271;28;20036;-84
2023/01/30 12:05:00;;;;;;;11.90;2.67;;;7.20;99.90;;;;;;5071026;28;20063;-83
2023/01/30 12:07:33;;;;;;;12.98;2.47;;;7.10;99.90;;;;;;5094972;27;20051;-84
2023/01/30 12:09:59;;;;;;;12.65;2.30;;;7.10;99.90;;;;;;5097633;28;20566;-83
2023/01/30 12:12:31;;;;;;;12.18;2.10;;;7.10;99.90;;;;;;5102895;27;20047;-83
2023/01/30 12:15:15;;;;;;;11.48;2.17;;;7.20;99.90;;;;;;5096172;28;20047;-84
2023/01/30 12:17:48;;;;;;;;;;;7.20;99.90;;;;;;5082440;28;20044;-84
2023/01/30 12:20:28;;;;;;;23.13;2.30;;;7.20;99.90;;;;;;5101173;28;19920;-84
2023/01/30 12:23:12;;;;;;;13.07;2.63;;;7.20;99.90;;;;;;5096433;28;20042;-84
2023/01/30 12:26:05;;;;;;;21.67;3.25;;;7.50;99.90;;;;;;5095079;28;20093;-84
2023/01/30 12:28:53;;;;;;;13.70;2.60;;;7.40;99.90;;;;;;5083641;28;20388;-84
2023/01/30 12:31:25;;;;;;;22.65;3.38;;;7.50;99.90;;;;;;5087381;28;20047;-85
2023/01/30 12:33:53;;;;;;;12.57;2.30;;;7.50;99.90;;;;;;5095409;28;20036;-84
2023/01/30 12:36:51;;;;;;;15.60;2.65;;;7.50;99.90;;;;;;5094192;27;20455;-83
2023/01/30 12:39:38;;;;;;;19.30;3.42;;;7.50;99.90;;;;;;5055557;28;20519;-84
2023/01/30 12:42:25;;;;;;;19.50;3.55;;;7.60;99.90;;;;;;5100113;28;20566;-85
2023/01/30 12:45:23;;;;;;;17.92;3.85;;;7.60;99.90;;;;;;5102174;27;20043;-84
2023/01/30 12:48:07;;;;;;;19.05;3.00;;;7.60;99.90;;;;;;5084130;28;20035;-84
2023/01/30 12:50:33;;;;;;;19.63;3.72;;;7.60;99.90;;;;;;5068139;28;20032;-86
2023/01/30 12:53:24;;;;;;;16.85;2.83;;;7.60;99.90;;;;;;5089226;28;20039;-85
2023/01/30 12:56:09;;;;;;;11.60;2.92;;;7.60;99.90;;;;;;5074520;28;20043;-83
2023/01/30 12:59:03;;;;;;;19.60;3.20;;;7.60;99.90;;;;;;5092096;28;20043;-82
2023/01/30 13:01:55;;;;;;;13.50;3.00;;;7.50;99.90;;;;;;5102422;28;20040;-84
2023/01/30 13:04:39;;;;;;;15.77;2.78;;;7.60;99.90;;;;;;5093185;28;20047;-84
2023/01/30 13:07:33;;;;;;;15.02;2.85;;;7.70;99.90;;;;;;5076342;28;20111;-84
2023/01/30 13:10:22;;;;;;;17.25;3.03;;;7.70;99.90;;;;;;5079717;28;20458;-84
2023/01/30 13:12:51;;;;;;;18.40;2.88;;;7.70;99.90;;;;;;5092940;28;20059;-84
2023/01/30 13:16:03;;;;;;;17.92;3.33;;;7.60;99.90;;;;;;5110817;28;20040;-84